Terminal Aerodrome Forecast
Issued by NWS Shreveport, LA

Home | Current Version | Previous Version | Text Only | Print | Product List | Glossary On
Versions: 1 2 3 4 5 6 7 8 9 10 11 12 13 14 15 16 17 18 19
000
FTUS44 KSHV 212139 AAA
TAFLFK
TAF AMD
KLFK 212139Z 2122/2218 16012G18KT P6SM SCT035 BKN040 OVC060
     FM220200 17014G22KT P6SM VCTS OVC035CB
      TEMPO 2206/2210 VRB20G40KT 2SM TSRA BR OVC015CB
     FM221000 26006KT P6SM BKN080
     FM221600 29011KT P6SM SCT250=

USA.gov is the U.S. government's official web portal to all federal, state and local government web resources and services.